This is the latest recevied weather packets stored in our database for station/object SP5IZJ-2. If no packets are shown the sender has not sent any weather packets the latest 10 day(s).
| Time | Temp. | Humidity | Pressure | Rain* | Wind** | Luminosity | Snow |
|---|---|---|---|---|---|---|---|
| 1777512010 | -3.89° C | 78% | 1023.3 hPa | 0 mm | - | - | - |
| 1777511635 | -3.89° C | 77% | 1023.3 hPa | 0 mm | - | - | - |
| 1777511181 | 100° C | 100% | 0 hPa | 0 mm | - | - | - |
| 1777510795 | -3.89° C | 77% | 1023.5 hPa | 0 mm | - | - | - |
| 1777510376 | -3.89° C | 77% | 1023.5 hPa | 0 mm | - | - | - |
| 1777509491 | -3.33° C | 76% | 1023.2 hPa | 0 mm | - | - | - |
| 1777509071 | -3.33° C | 76% | 1023.3 hPa | 0 mm | - | - | - |
| 1777508232 | -3.33° C | 76% | 1023.2 hPa | 0 mm | - | - | - |
| 1777507821 | -3.33° C | 76% | 1023.2 hPa | 0 mm | - | - | - |
| 1777507392 | -3.33° C | 75% | 1023.2 hPa | 0 mm | - | - | - |
| 1777506972 | -3.89° C | 75% | 1023.1 hPa | 0 mm | - | - | - |
| 1777506552 | -3.89° C | 74% | 1023.2 hPa | 0 mm | - | - | - |
| 1777506133 | -3.89° C | 73% | 1023.2 hPa | 0 mm | - | - | - |
| 1777505315 | -3.89° C | 73% | 1023.2 hPa | 0 mm | - | - | - |
| 1777504873 | -3.33° C | 73% | 1023.2 hPa | 0 mm | - | - | - |
| 1777504453 | -3.33° C | 72% | 1023 hPa | 0 mm | - | - | - |
| 1777504033 | -2.78° C | 73% | 1023 hPa | 0 mm | - | - | - |
| 1777503625 | -2.22° C | 73% | 1023 hPa | 0 mm | - | - | - |
| 1777503209 | -2.22° C | 72% | 1023 hPa | 0 mm | - | - | - |
| 1777502774 | -2.78° C | 71% | 1023.1 hPa | 0 mm | - | - | - |
| 1777502354 | -2.78° C | 71% | 1023.2 hPa | 0 mm | - | - | - |
| 1777501935 | -2.78° C | 70% | 1023 hPa | 0 mm | - | - | - |
| 1777501525 | -2.22° C | 69% | 1023.1 hPa | 0 mm | - | - | - |
| 1777500675 | -2.22° C | 69% | 1023.1 hPa | 0 mm | - | - | - |
| 1777500255 | -1.67° C | 69% | 1023.1 hPa | 0 mm | - | - | - |
* Rain latest hour (hover to see other rain measurements)
** Current wind speed in m/s (hover to see current wind gust speed)